sensor_id;sensor_type;location;lat;lon;timestamp;P1;durP1;ratioP1;P2;durP2;ratioP2
73585;SDS011;61865;50.232;18.614;2023-04-15T00:01:29;11.98;;;7.32;;
73585;SDS011;61865;50.232;18.614;2023-04-15T00:03:53;14.18;;;8.27;;
73585;SDS011;61865;50.232;18.614;2023-04-15T00:06:18;18.08;;;9.52;;
73585;SDS011;61865;50.232;18.614;2023-04-15T00:08:40;19.17;;;11.27;;
73585;SDS011;61865;50.232;18.614;2023-04-15T00:11:02;19.92;;;10.95;;
73585;SDS011;61865;50.232;18.614;2023-04-15T00:13:24;20.45;;;11.25;;
73585;SDS011;61865;50.232;18.614;2023-04-15T00:15:46;21.58;;;12.30;;
73585;SDS011;61865;50.232;18.614;2023-04-15T00:18:08;25.75;;;13.93;;
73585;SDS011;61865;50.232;18.614;2023-04-15T00:20:30;23.77;;;13.32;;
73585;SDS011;61865;50.232;18.614;2023-04-15T00:22:54;21.88;;;13.48;;
73585;SDS011;61865;50.232;18.614;2023-04-15T00:25:17;26.38;;;14.65;;
73585;SDS011;61865;50.232;18.614;2023-04-15T00:27:38;25.17;;;14.82;;
73585;SDS011;61865;50.232;18.614;2023-04-15T00:30:01;27.17;;;15.02;;
73585;SDS011;61865;50.232;18.614;2023-04-15T00:32:23;27.27;;;14.90;;
73585;SDS011;61865;50.232;18.614;2023-04-15T00:34:45;26.00;;;14.23;;
73585;SDS011;61865;50.232;18.614;2023-04-15T00:37:07;23.70;;;14.48;;
73585;SDS011;61865;50.232;18.614;2023-04-15T00:39:33;23.88;;;14.60;;
73585;SDS011;61865;50.232;18.614;2023-04-15T00:41:55;24.38;;;13.48;;
73585;SDS011;61865;50.232;18.614;2023-04-15T00:44:17;25.35;;;14.15;;
73585;SDS011;61865;50.232;18.614;2023-04-15T00:46:40;30.92;;;15.65;;
73585;SDS011;61865;50.232;18.614;2023-04-15T00:49:03;26.30;;;15.90;;
73585;SDS011;61865;50.232;18.614;2023-04-15T00:51:26;27.42;;;14.77;;
73585;SDS011;61865;50.232;18.614;2023-04-15T00:53:47;29.08;;;15.88;;
73585;SDS011;61865;50.232;18.614;2023-04-15T00:56:12;26.58;;;15.07;;
73585;SDS011;61865;50.232;18.614;2023-04-15T00:58:34;24.42;;;14.25;;
73585;SDS011;61865;50.232;18.614;2023-04-15T01:00:56;21.20;;;14.00;;
73585;SDS011;61865;50.232;18.614;2023-04-15T01:03:20;22.83;;;12.90;;
73585;SDS011;61865;50.232;18.614;2023-04-15T01:05:42;23.77;;;13.38;;
73585;SDS011;61865;50.232;18.614;2023-04-15T01:08:04;22.25;;;14.32;;
73585;SDS011;61865;50.232;18.614;2023-04-15T01:10:26;20.58;;;13.27;;
73585;SDS011;61865;50.232;18.614;2023-04-15T01:12:49;18.85;;;11.02;;
73585;SDS011;61865;50.232;18.614;2023-04-15T01:15:11;15.45;;;9.98;;
73585;SDS011;61865;50.232;18.614;2023-04-15T01:17:33;13.70;;;8.30;;
73585;SDS011;61865;50.232;18.614;2023-04-15T01:19:55;15.93;;;6.78;;
73585;SDS011;61865;50.232;18.614;2023-04-15T01:22:17;13.07;;;7.18;;
73585;SDS011;61865;50.232;18.614;2023-04-15T01:24:40;14.60;;;8.25;;
73585;SDS011;61865;50.232;18.614;2023-04-15T01:27:06;15.63;;;9.35;;
73585;SDS011;61865;50.232;18.614;2023-04-15T01:29:30;17.70;;;9.10;;
73585;SDS011;61865;50.232;18.614;2023-04-15T01:31:53;18.05;;;8.90;;
73585;SDS011;61865;50.232;18.614;2023-04-15T01:34:15;13.82;;;8.18;;
73585;SDS011;61865;50.232;18.614;2023-04-15T01:36:37;12.93;;;7.70;;
73585;SDS011;61865;50.232;18.614;2023-04-15T01:39:00;11.73;;;7.18;;
73585;SDS011;61865;50.232;18.614;2023-04-15T01:41:24;12.30;;;7.00;;
73585;SDS011;61865;50.232;18.614;2023-04-15T01:43:47;13.18;;;7.03;;
73585;SDS011;61865;50.232;18.614;2023-04-15T01:46:09;10.90;;;7.03;;
73585;SDS011;61865;50.232;18.614;2023-04-15T01:48:31;14.20;;;7.30;;
73585;SDS011;61865;50.232;18.614;2023-04-15T01:50:54;10.60;;;6.40;;
73585;SDS011;61865;50.232;18.614;2023-04-15T01:53:17;10.07;;;5.65;;
73585;SDS011;61865;50.232;18.614;2023-04-15T01:55:39;11.35;;;6.25;;
73585;SDS011;61865;50.232;18.614;2023-04-15T01:58:02;13.30;;;5.75;;
73585;SDS011;61865;50.232;18.614;2023-04-15T02:00:25;12.15;;;6.50;;
73585;SDS011;61865;50.232;18.614;2023-04-15T02:02:47;11.90;;;5.25;;
73585;SDS011;61865;50.232;18.614;2023-04-15T02:05:09;10.13;;;6.63;;
73585;SDS011;61865;50.232;18.614;2023-04-15T02:07:31;25.35;;;14.50;;
73585;SDS011;61865;50.232;18.614;2023-04-15T02:09:53;21.88;;;12.40;;
73585;SDS011;61865;50.232;18.614;2023-04-15T02:12:15;15.88;;;9.80;;
73585;SDS011;61865;50.232;18.614;2023-04-15T02:14:37;16.17;;;9.18;;
73585;SDS011;61865;50.232;18.614;2023-04-15T02:17:00;16.80;;;9.45;;
73585;SDS011;61865;50.232;18.614;2023-04-15T02:19:26;19.20;;;9.23;;
73585;SDS011;61865;50.232;18.614;2023-04-15T02:21:48;19.92;;;9.77;;
73585;SDS011;61865;50.232;18.614;2023-04-15T02:24:10;16.77;;;9.32;;
73585;SDS011;61865;50.232;18.614;2023-04-15T02:26:32;16.30;;;9.05;;
73585;SDS011;61865;50.232;18.614;2023-04-15T02:28:55;17.05;;;9.65;;
73585;SDS011;61865;50.232;18.614;2023-04-15T02:31:17;17.88;;;9.90;;
73585;SDS011;61865;50.232;18.614;2023-04-15T02:33:41;15.75;;;9.52;;
73585;SDS011;61865;50.232;18.614;2023-04-15T02:36:03;17.98;;;9.25;;
73585;SDS011;61865;50.232;18.614;2023-04-15T02:38:26;17.73;;;9.07;;
73585;SDS011;61865;50.232;18.614;2023-04-15T02:40:49;18.42;;;9.38;;
73585;SDS011;61865;50.232;18.614;2023-04-15T02:43:11;20.00;;;10.23;;
73585;SDS011;61865;50.232;18.614;2023-04-15T02:45:33;18.80;;;11.20;;
73585;SDS011;61865;50.232;18.614;2023-04-15T02:47:55;19.67;;;11.55;;
73585;SDS011;61865;50.232;18.614;2023-04-15T02:50:18;20.48;;;11.57;;
73585;SDS011;61865;50.232;18.614;2023-04-15T02:52:42;25.45;;;12.93;;
73585;SDS011;61865;50.232;18.614;2023-04-15T02:55:05;23.38;;;13.25;;
73585;SDS011;61865;50.232;18.614;2023-04-15T02:57:28;22.55;;;13.23;;
73585;SDS011;61865;50.232;18.614;2023-04-15T02:59:50;22.10;;;13.75;;
73585;SDS011;61865;50.232;18.614;2023-04-15T03:02:12;23.92;;;13.48;;
73585;SDS011;61865;50.232;18.614;2023-04-15T03:04:34;27.10;;;15.35;;
73585;SDS011;61865;50.232;18.614;2023-04-15T03:06:57;28.65;;;14.38;;
73585;SDS011;61865;50.232;18.614;2023-04-15T03:09:20;27.95;;;13.48;;
73585;SDS011;61865;50.232;18.614;2023-04-15T03:11:41;23.00;;;13.82;;
73585;SDS011;61865;50.232;18.614;2023-04-15T03:14:03;25.02;;;13.43;;
73585;SDS011;61865;50.232;18.614;2023-04-15T03:16:25;23.27;;;11.73;;
73585;SDS011;61865;50.232;18.614;2023-04-15T03:18:47;19.90;;;10.55;;
73585;SDS011;61865;50.232;18.614;2023-04-15T03:21:09;16.00;;;9.68;;
73585;SDS011;61865;50.232;18.614;2023-04-15T03:23:32;19.60;;;10.40;;
73585;SDS011;61865;50.232;18.614;2023-04-15T03:25:54;14.85;;;9.50;;
73585;SDS011;61865;50.232;18.614;2023-04-15T03:28:17;16.13;;;9.35;;
73585;SDS011;61865;50.232;18.614;2023-04-15T03:30:38;19.17;;;9.52;;
73585;SDS011;61865;50.232;18.614;2023-04-15T03:33:01;26.60;;;11.55;;
73585;SDS011;61865;50.232;18.614;2023-04-15T03:35:22;23.80;;;10.50;;
73585;SDS011;61865;50.232;18.614;2023-04-15T03:37:44;18.33;;;8.98;;
73585;SDS011;61865;50.232;18.614;2023-04-15T03:40:10;21.42;;;10.05;;
73585;SDS011;61865;50.232;18.614;2023-04-15T03:42:32;19.23;;;10.45;;
73585;SDS011;61865;50.232;18.614;2023-04-15T03:44:54;16.15;;;10.23;;
73585;SDS011;61865;50.232;18.614;2023-04-15T03:47:16;15.77;;;10.35;;
73585;SDS011;61865;50.232;18.614;2023-04-15T03:49:37;16.35;;;9.55;;
73585;SDS011;61865;50.232;18.614;2023-04-15T03:51:59;23.77;;;11.80;;
73585;SDS011;61865;50.232;18.614;2023-04-15T03:54:21;24.02;;;13.13;;
73585;SDS011;61865;50.232;18.614;2023-04-15T03:56:45;19.70;;;11.93;;
73585;SDS011;61865;50.232;18.614;2023-04-15T03:59:07;20.52;;;11.23;;
73585;SDS011;61865;50.232;18.614;2023-04-15T04:01:29;19.83;;;10.65;;
73585;SDS011;61865;50.232;18.614;2023-04-15T04:03:50;17.60;;;9.32;;
73585;SDS011;61865;50.232;18.614;2023-04-15T04:06:12;17.15;;;9.85;;
73585;SDS011;61865;50.232;18.614;2023-04-15T04:08:35;19.70;;;11.02;;
73585;SDS011;61865;50.232;18.614;2023-04-15T04:10:57;23.77;;;11.65;;
73585;SDS011;61865;50.232;18.614;2023-04-15T04:13:21;17.98;;;10.68;;
73585;SDS011;61865;50.232;18.614;2023-04-15T04:15:43;19.42;;;10.52;;
73585;SDS011;61865;50.232;18.614;2023-04-15T04:18:05;19.08;;;10.52;;
73585;SDS011;61865;50.232;18.614;2023-04-15T04:20:27;22.48;;;10.10;;
73585;SDS011;61865;50.232;18.614;2023-04-15T04:22:50;33.95;;;14.88;;
73585;SDS011;61865;50.232;18.614;2023-04-15T04:25:12;43.78;;;17.02;;
73585;SDS011;61865;50.232;18.614;2023-04-15T04:27:35;27.77;;;13.02;;
73585;SDS011;61865;50.232;18.614;2023-04-15T04:29:58;23.75;;;12.30;;
73585;SDS011;61865;50.232;18.614;2023-04-15T04:32:20;17.75;;;9.90;;
73585;SDS011;61865;50.232;18.614;2023-04-15T04:34:42;20.25;;;9.57;;
73585;SDS011;61865;50.232;18.614;2023-04-15T04:37:04;23.15;;;11.02;;
73585;SDS011;61865;50.232;18.614;2023-04-15T04:39:26;19.45;;;9.63;;
73585;SDS011;61865;50.232;18.614;2023-04-15T04:41:48;22.48;;;14.27;;
73585;SDS011;61865;50.232;18.614;2023-04-15T04:44:11;26.00;;;13.50;;
73585;SDS011;61865;50.232;18.614;2023-04-15T04:46:34;19.90;;;10.70;;
73585;SDS011;61865;50.232;18.614;2023-04-15T04:48:56;23.02;;;13.30;;
73585;SDS011;61865;50.232;18.614;2023-04-15T04:51:18;28.15;;;16.17;;
73585;SDS011;61865;50.232;18.614;2023-04-15T04:53:40;25.05;;;15.10;;
73585;SDS011;61865;50.232;18.614;2023-04-15T04:56:02;30.13;;;17.23;;
73585;SDS011;61865;50.232;18.614;2023-04-15T04:58:24;21.15;;;14.75;;
73585;SDS011;61865;50.232;18.614;2023-04-15T05:00:46;21.80;;;13.20;;
73585;SDS011;61865;50.232;18.614;2023-04-15T05:03:09;19.83;;;11.20;;
73585;SDS011;61865;50.232;18.614;2023-04-15T05:05:31;16.23;;;9.52;;
73585;SDS011;61865;50.232;18.614;2023-04-15T05:07:54;17.50;;;10.43;;
73585;SDS011;61865;50.232;18.614;2023-04-15T05:10:16;23.33;;;12.38;;
73585;SDS011;61865;50.232;18.614;2023-04-15T05:12:38;21.25;;;13.52;;
73585;SDS011;61865;50.232;18.614;2023-04-15T05:15:00;20.83;;;13.13;;
73585;SDS011;61865;50.232;18.614;2023-04-15T05:17:22;22.42;;;14.45;;
73585;SDS011;61865;50.232;18.614;2023-04-15T05:19:45;22.17;;;14.80;;
73585;SDS011;61865;50.232;18.614;2023-04-15T05:22:07;26.73;;;17.10;;
73585;SDS011;61865;50.232;18.614;2023-04-15T05:24:29;24.23;;;16.10;;
73585;SDS011;61865;50.232;18.614;2023-04-15T05:26:51;29.98;;;20.30;;
73585;SDS011;61865;50.232;18.614;2023-04-15T05:29:13;49.50;;;32.72;;
73585;SDS011;61865;50.232;18.614;2023-04-15T05:31:35;38.80;;;26.83;;
73585;SDS011;61865;50.232;18.614;2023-04-15T05:33:57;40.15;;;28.35;;
73585;SDS011;61865;50.232;18.614;2023-04-15T05:36:20;47.75;;;33.13;;
73585;SDS011;61865;50.232;18.614;2023-04-15T05:38:42;39.28;;;27.20;;
73585;SDS011;61865;50.232;18.614;2023-04-15T05:41:04;34.80;;;21.02;;
73585;SDS011;61865;50.232;18.614;2023-04-15T05:43:26;26.52;;;18.70;;
73585;SDS011;61865;50.232;18.614;2023-04-15T05:45:48;23.33;;;15.02;;
73585;SDS011;61865;50.232;18.614;2023-04-15T05:48:09;20.13;;;13.25;;
73585;SDS011;61865;50.232;18.614;2023-04-15T05:50:31;21.75;;;12.65;;
73585;SDS011;61865;50.232;18.614;2023-04-15T05:52:56;18.40;;;12.27;;
73585;SDS011;61865;50.232;18.614;2023-04-15T05:55:20;18.10;;;12.20;;
73585;SDS011;61865;50.232;18.614;2023-04-15T05:57:42;15.68;;;11.35;;
73585;SDS011;61865;50.232;18.614;2023-04-15T06:00:04;18.52;;;11.27;;
73585;SDS011;61865;50.232;18.614;2023-04-15T06:02:27;22.63;;;11.80;;
73585;SDS011;61865;50.232;18.614;2023-04-15T06:04:49;21.20;;;12.15;;
73585;SDS011;61865;50.232;18.614;2023-04-15T06:07:11;16.83;;;11.07;;
73585;SDS011;61865;50.232;18.614;2023-04-15T06:09:34;18.30;;;10.32;;
73585;SDS011;61865;50.232;18.614;2023-04-15T06:11:57;16.13;;;10.93;;
73585;SDS011;61865;50.232;18.614;2023-04-15T06:14:20;16.15;;;11.02;;
73585;SDS011;61865;50.232;18.614;2023-04-15T06:16:42;13.05;;;8.18;;
73585;SDS011;61865;50.232;18.614;2023-04-15T06:19:05;10.75;;;6.38;;
73585;SDS011;61865;50.232;18.614;2023-04-15T06:21:27;12.45;;;6.43;;
73585;SDS011;61865;50.232;18.614;2023-04-15T06:23:50;8.68;;;6.10;;
73585;SDS011;61865;50.232;18.614;2023-04-15T06:26:14;11.07;;;5.93;;
73585;SDS011;61865;50.232;18.614;2023-04-15T06:28:36;8.80;;;5.75;;
73585;SDS011;61865;50.232;18.614;2023-04-15T06:30:58;10.98;;;5.88;;
73585;SDS011;61865;50.232;18.614;2023-04-15T06:33:21;11.88;;;6.07;;
73585;SDS011;61865;50.232;18.614;2023-04-15T06:35:42;10.10;;;6.63;;
73585;SDS011;61865;50.232;18.614;2023-04-15T06:38:04;9.70;;;7.13;;
73585;SDS011;61865;50.232;18.614;2023-04-15T06:40:27;12.00;;;6.15;;
73585;SDS011;61865;50.232;18.614;2023-04-15T06:42:53;14.80;;;7.28;;
73585;SDS011;61865;50.232;18.614;2023-04-15T06:45:15;9.05;;;5.90;;
73585;SDS011;61865;50.232;18.614;2023-04-15T06:47:38;9.80;;;5.97;;
73585;SDS011;61865;50.232;18.614;2023-04-15T06:50:04;9.18;;;5.30;;
73585;SDS011;61865;50.232;18.614;2023-04-15T06:52:26;7.47;;;4.47;;
73585;SDS011;61865;50.232;18.614;2023-04-15T06:54:48;7.72;;;5.00;;
73585;SDS011;61865;50.232;18.614;2023-04-15T06:57:10;10.35;;;5.90;;
73585;SDS011;61865;50.232;18.614;2023-04-15T06:59:36;8.75;;;5.15;;
73585;SDS011;61865;50.232;18.614;2023-04-15T07:01:58;7.13;;;4.10;;
73585;SDS011;61865;50.232;18.614;2023-04-15T07:04:23;7.15;;;4.30;;
73585;SDS011;61865;50.232;18.614;2023-04-15T07:06:47;5.47;;;3.45;;
73585;SDS011;61865;50.232;18.614;2023-04-15T07:09:10;6.13;;;3.78;;
73585;SDS011;61865;50.232;18.614;2023-04-15T07:11:31;6.88;;;3.72;;
73585;SDS011;61865;50.232;18.614;2023-04-15T07:13:53;6.03;;;3.38;;
73585;SDS011;61865;50.232;18.614;2023-04-15T07:16:17;4.72;;;3.25;;
73585;SDS011;61865;50.232;18.614;2023-04-15T07:18:38;7.85;;;4.20;;
73585;SDS011;61865;50.232;18.614;2023-04-15T07:21:00;7.15;;;3.78;;
73585;SDS011;61865;50.232;18.614;2023-04-15T07:23:22;6.65;;;3.17;;
73585;SDS011;61865;50.232;18.614;2023-04-15T07:25:44;6.68;;;3.40;;
73585;SDS011;61865;50.232;18.614;2023-04-15T07:28:06;5.80;;;3.45;;
73585;SDS011;61865;50.232;18.614;2023-04-15T07:30:28;11.07;;;3.70;;
73585;SDS011;61865;50.232;18.614;2023-04-15T07:32:51;4.57;;;2.85;;
73585;SDS011;61865;50.232;18.614;2023-04-15T07:35:15;6.50;;;3.50;;
73585;SDS011;61865;50.232;18.614;2023-04-15T07:37:37;8.27;;;3.90;;
73585;SDS011;61865;50.232;18.614;2023-04-15T07:39:59;4.75;;;3.00;;
73585;SDS011;61865;50.232;18.614;2023-04-15T07:42:21;5.63;;;3.20;;
73585;SDS011;61865;50.232;18.614;2023-04-15T07:44:42;6.25;;;3.05;;
73585;SDS011;61865;50.232;18.614;2023-04-15T07:47:06;7.85;;;3.42;;
73585;SDS011;61865;50.232;18.614;2023-04-15T07:49:29;7.25;;;3.20;;
73585;SDS011;61865;50.232;18.614;2023-04-15T07:51:51;6.07;;;3.33;;
73585;SDS011;61865;50.232;18.614;2023-04-15T07:54:14;4.80;;;2.58;;
73585;SDS011;61865;50.232;18.614;2023-04-15T07:56:36;6.05;;;2.88;;
73585;SDS011;61865;50.232;18.614;2023-04-15T07:58:58;5.30;;;2.47;;
73585;SDS011;61865;50.232;18.614;2023-04-15T08:01:21;4.68;;;2.78;;
73585;SDS011;61865;50.232;18.614;2023-04-15T08:03:51;4.25;;;2.70;;
73585;SDS011;61865;50.232;18.614;2023-04-15T08:06:15;4.47;;;2.40;;
73585;SDS011;61865;50.232;18.614;2023-04-15T08:08:37;4.43;;;2.03;;
73585;SDS011;61865;50.232;18.614;2023-04-15T08:11:02;9.07;;;4.25;;
73585;SDS011;61865;50.232;18.614;2023-04-15T08:13:26;6.82;;;4.30;;
73585;SDS011;61865;50.232;18.614;2023-04-15T08:15:55;9.23;;;4.03;;
73585;SDS011;61865;50.232;18.614;2023-04-15T08:18:36;5.55;;;2.30;;
73585;SDS011;61865;50.232;18.614;2023-04-15T08:20:58;5.75;;;2.67;;
73585;SDS011;61865;50.232;18.614;2023-04-15T08:23:23;6.50;;;3.30;;
73585;SDS011;61865;50.232;18.614;2023-04-15T08:25:46;7.03;;;4.45;;
73585;SDS011;61865;50.232;18.614;2023-04-15T08:28:10;6.40;;;4.18;;
73585;SDS011;61865;50.232;18.614;2023-04-15T08:30:35;8.05;;;3.85;;
73585;SDS011;61865;50.232;18.614;2023-04-15T08:32:58;5.95;;;3.90;;
73585;SDS011;61865;50.232;18.614;2023-04-15T08:35:21;6.97;;;3.83;;
73585;SDS011;61865;50.232;18.614;2023-04-15T08:37:45;11.50;;;4.72;;
73585;SDS011;61865;50.232;18.614;2023-04-15T08:40:09;4.35;;;2.50;;
73585;SDS011;61865;50.232;18.614;2023-04-15T08:42:34;4.10;;;2.50;;
73585;SDS011;61865;50.232;18.614;2023-04-15T08:44:59;3.85;;;2.42;;
73585;SDS011;61865;50.232;18.614;2023-04-15T08:47:21;6.45;;;3.00;;
73585;SDS011;61865;50.232;18.614;2023-04-15T08:49:49;7.00;;;3.55;;
73585;SDS011;61865;50.232;18.614;2023-04-15T08:52:15;7.43;;;3.28;;
73585;SDS011;61865;50.232;18.614;2023-04-15T08:54:37;3.67;;;1.90;;
73585;SDS011;61865;50.232;18.614;2023-04-15T08:57:00;1.40;;;1.30;;
73585;SDS011;61865;50.232;18.614;2023-04-15T08:59:22;1.50;;;1.40;;
73585;SDS011;61865;50.232;18.614;2023-04-15T09:01:45;1.55;;;1.30;;
73585;SDS011;61865;50.232;18.614;2023-04-15T09:04:07;1.48;;;1.38;;
73585;SDS011;61865;50.232;18.614;2023-04-15T09:06:30;1.55;;;1.30;;
73585;SDS011;61865;50.232;18.614;2023-04-15T09:08:52;9.15;;;2.65;;
73585;SDS011;61865;50.232;18.614;2023-04-15T09:11:14;4.60;;;2.10;;
73585;SDS011;61865;50.232;18.614;2023-04-15T09:13:38;2.22;;;1.38;;
73585;SDS011;61865;50.232;18.614;2023-04-15T09:16:00;2.38;;;1.60;;
73585;SDS011;61865;50.232;18.614;2023-04-15T09:18:26;1.75;;;1.35;;
73585;SDS011;61865;50.232;18.614;2023-04-15T09:20:49;2.35;;;1.52;;
73585;SDS011;61865;50.232;18.614;2023-04-15T09:23:14;3.78;;;1.50;;
73585;SDS011;61865;50.232;18.614;2023-04-15T09:25:36;2.13;;;1.60;;
73585;SDS011;61865;50.232;18.614;2023-04-15T09:28:01;3.53;;;1.55;;
73585;SDS011;61865;50.232;18.614;2023-04-15T09:30:24;1.50;;;1.40;;
73585;SDS011;61865;50.232;18.614;2023-04-15T09:32:48;2.05;;;1.42;;
73585;SDS011;61865;50.232;18.614;2023-04-15T09:35:12;2.15;;;1.58;;
73585;SDS011;61865;50.232;18.614;2023-04-15T09:37:34;2.00;;;1.80;;
73585;SDS011;61865;50.232;18.614;2023-04-15T09:39:56;2.75;;;1.50;;
73585;SDS011;61865;50.232;18.614;2023-04-15T09:42:18;1.73;;;1.40;;
73585;SDS011;61865;50.232;18.614;2023-04-15T09:44:43;2.60;;;1.65;;
73585;SDS011;61865;50.232;18.614;2023-04-15T09:47:07;2.28;;;1.70;;
73585;SDS011;61865;50.232;18.614;2023-04-15T09:49:29;1.75;;;1.30;;
73585;SDS011;61865;50.232;18.614;2023-04-15T09:51:50;2.10;;;1.60;;
73585;SDS011;61865;50.232;18.614;2023-04-15T09:54:18;1.73;;;1.50;;
73585;SDS011;61865;50.232;18.614;2023-04-15T09:56:42;2.95;;;1.73;;
73585;SDS011;61865;50.232;18.614;2023-04-15T09:59:04;2.50;;;1.55;;
73585;SDS011;61865;50.232;18.614;2023-04-15T10:01:26;1.70;;;1.40;;
73585;SDS011;61865;50.232;18.614;2023-04-15T10:03:50;1.50;;;1.40;;
73585;SDS011;61865;50.232;18.614;2023-04-15T10:06:12;3.03;;;1.63;;
73585;SDS011;61865;50.232;18.614;2023-04-15T10:08:35;2.13;;;1.65;;
73585;SDS011;61865;50.232;18.614;2023-04-15T10:10:57;2.38;;;1.67;;
73585;SDS011;61865;50.232;18.614;2023-04-15T10:13:21;2.45;;;1.65;;
73585;SDS011;61865;50.232;18.614;2023-04-15T10:15:45;2.90;;;1.80;;
73585;SDS011;61865;50.232;18.614;2023-04-15T10:18:11;1.92;;;1.70;;
73585;SDS011;61865;50.232;18.614;2023-04-15T10:20:37;2.67;;;1.80;;
73585;SDS011;61865;50.232;18.614;2023-04-15T10:23:00;3.25;;;1.80;;
73585;SDS011;61865;50.232;18.614;2023-04-15T10:25:22;1.92;;;1.60;;
73585;SDS011;61865;50.232;18.614;2023-04-15T10:27:46;3.33;;;1.67;;
73585;SDS011;61865;50.232;18.614;2023-04-15T10:30:11;3.72;;;1.75;;
73585;SDS011;61865;50.232;18.614;2023-04-15T10:32:33;4.03;;;1.77;;
73585;SDS011;61865;50.232;18.614;2023-04-15T10:34:56;3.22;;;1.90;;
73585;SDS011;61865;50.232;18.614;2023-04-15T10:37:21;3.08;;;1.90;;
73585;SDS011;61865;50.232;18.614;2023-04-15T10:39:53;3.05;;;1.77;;
73585;SDS011;61865;50.232;18.614;2023-04-15T10:42:15;6.88;;;3.42;;
73585;SDS011;61865;50.232;18.614;2023-04-15T10:44:40;3.53;;;1.95;;
73585;SDS011;61865;50.232;18.614;2023-04-15T10:47:05;3.38;;;1.98;;
73585;SDS011;61865;50.232;18.614;2023-04-15T10:49:31;2.30;;;1.60;;
73585;SDS011;61865;50.232;18.614;2023-04-15T10:51:57;3.28;;;2.20;;
73585;SDS011;61865;50.232;18.614;2023-04-15T10:54:31;6.43;;;3.13;;
73585;SDS011;61865;50.232;18.614;2023-04-15T10:57:05;3.83;;;2.20;;
73585;SDS011;61865;50.232;18.614;2023-04-15T10:59:29;4.40;;;2.10;;
73585;SDS011;61865;50.232;18.614;2023-04-15T11:01:53;5.22;;;2.03;;
73585;SDS011;61865;50.232;18.614;2023-04-15T11:07:11;3.83;;;1.95;;
73585;SDS011;61865;50.232;18.614;2023-04-15T11:09:35;3.30;;;1.92;;
73585;SDS011;61865;50.232;18.614;2023-04-15T11:12:06;3.75;;;2.10;;
73585;SDS011;61865;50.232;18.614;2023-04-15T11:14:28;2.70;;;2.05;;
73585;SDS011;61865;50.232;18.614;2023-04-15T11:16:50;4.57;;;2.00;;
73585;SDS011;61865;50.232;18.614;2023-04-15T11:19:12;4.22;;;2.13;;
73585;SDS011;61865;50.232;18.614;2023-04-15T11:21:34;2.65;;;1.83;;
73585;SDS011;61865;50.232;18.614;2023-04-15T11:23:57;4.10;;;2.20;;
73585;SDS011;61865;50.232;18.614;2023-04-15T11:26:24;5.15;;;2.10;;
73585;SDS011;61865;50.232;18.614;2023-04-15T11:28:46;4.07;;;2.17;;
73585;SDS011;61865;50.232;18.614;2023-04-15T11:31:09;3.10;;;2.00;;
73585;SDS011;61865;50.232;18.614;2023-04-15T11:33:32;3.95;;;2.10;;
73585;SDS011;61865;50.232;18.614;2023-04-15T11:35:54;3.97;;;2.10;;
73585;SDS011;61865;50.232;18.614;2023-04-15T11:38:16;2.85;;;2.10;;
73585;SDS011;61865;50.232;18.614;2023-04-15T11:40:38;3.50;;;2.33;;
73585;SDS011;61865;50.232;18.614;2023-04-15T11:43:06;6.20;;;2.20;;
73585;SDS011;61865;50.232;18.614;2023-04-15T11:45:29;3.70;;;2.30;;
73585;SDS011;61865;50.232;18.614;2023-04-15T11:47:51;4.03;;;2.72;;
73585;SDS011;61865;50.232;18.614;2023-04-15T11:50:13;4.88;;;2.40;;
73585;SDS011;61865;50.232;18.614;2023-04-15T11:52:35;4.63;;;2.60;;
73585;SDS011;61865;50.232;18.614;2023-04-15T11:55:01;3.88;;;2.20;;
73585;SDS011;61865;50.232;18.614;2023-04-15T11:57:29;3.53;;;2.33;;
73585;SDS011;61865;50.232;18.614;2023-04-15T11:59:54;3.42;;;2.10;;
73585;SDS011;61865;50.232;18.614;2023-04-15T12:02:17;3.67;;;2.10;;
73585;SDS011;61865;50.232;18.614;2023-04-15T12:04:39;2.70;;;1.95;;
73585;SDS011;61865;50.232;18.614;2023-04-15T12:07:03;3.10;;;2.15;;
73585;SDS011;61865;50.232;18.614;2023-04-15T12:09:26;3.28;;;2.25;;
73585;SDS011;61865;50.232;18.614;2023-04-15T12:11:48;3.70;;;2.10;;
73585;SDS011;61865;50.232;18.614;2023-04-15T12:14:15;3.17;;;2.03;;
73585;SDS011;61865;50.232;18.614;2023-04-15T12:16:42;3.75;;;2.58;;
73585;SDS011;61865;50.232;18.614;2023-04-15T12:19:10;5.22;;;2.47;;
73585;SDS011;61865;50.232;18.614;2023-04-15T12:21:34;2.45;;;1.70;;
73585;SDS011;61865;50.232;18.614;2023-04-15T12:23:57;4.20;;;2.25;;
73585;SDS011;61865;50.232;18.614;2023-04-15T12:26:26;4.82;;;2.45;;
73585;SDS011;61865;50.232;18.614;2023-04-15T12:28:49;4.72;;;2.17;;
73585;SDS011;61865;50.232;18.614;2023-04-15T12:31:14;5.07;;;2.38;;
73585;SDS011;61865;50.232;18.614;2023-04-15T12:33:38;5.03;;;2.50;;
73585;SDS011;61865;50.232;18.614;2023-04-15T12:36:00;3.42;;;2.50;;
73585;SDS011;61865;50.232;18.614;2023-04-15T12:38:22;3.30;;;2.20;;
73585;SDS011;61865;50.232;18.614;2023-04-15T12:40:45;5.75;;;2.40;;
73585;SDS011;61865;50.232;18.614;2023-04-15T12:43:07;4.13;;;2.45;;
73585;SDS011;61865;50.232;18.614;2023-04-15T12:45:29;5.70;;;2.50;;
73585;SDS011;61865;50.232;18.614;2023-04-15T12:47:51;4.97;;;2.72;;
73585;SDS011;61865;50.232;18.614;2023-04-15T12:50:14;3.80;;;2.60;;
73585;SDS011;61865;50.232;18.614;2023-04-15T12:52:37;5.10;;;2.58;;
73585;SDS011;61865;50.232;18.614;2023-04-15T12:54:59;5.47;;;2.90;;
73585;SDS011;61865;50.232;18.614;2023-04-15T12:57:21;5.43;;;2.70;;
73585;SDS011;61865;50.232;18.614;2023-04-15T12:59:43;6.07;;;2.85;;
73585;SDS011;61865;50.232;18.614;2023-04-15T13:02:05;3.97;;;2.15;;
73585;SDS011;61865;50.232;18.614;2023-04-15T13:04:27;4.38;;;2.45;;
73585;SDS011;61865;50.232;18.614;2023-04-15T13:06:51;4.25;;;2.33;;
73585;SDS011;61865;50.232;18.614;2023-04-15T13:09:13;6.90;;;2.90;;
73585;SDS011;61865;50.232;18.614;2023-04-15T13:11:35;6.35;;;3.22;;
73585;SDS011;61865;50.232;18.614;2023-04-15T13:13:56;4.15;;;2.70;;
73585;SDS011;61865;50.232;18.614;2023-04-15T13:16:19;3.78;;;2.65;;
73585;SDS011;61865;50.232;18.614;2023-04-15T13:18:41;4.85;;;2.50;;
73585;SDS011;61865;50.232;18.614;2023-04-15T13:21:03;5.55;;;2.90;;
73585;SDS011;61865;50.232;18.614;2023-04-15T13:23:27;4.97;;;3.10;;
73585;SDS011;61865;50.232;18.614;2023-04-15T13:25:49;6.07;;;2.75;;
73585;SDS011;61865;50.232;18.614;2023-04-15T13:28:11;2.58;;;2.10;;
73585;SDS011;61865;50.232;18.614;2023-04-15T13:30:33;5.95;;;2.85;;
73585;SDS011;61865;50.232;18.614;2023-04-15T13:32:55;4.15;;;2.85;;
73585;SDS011;61865;50.232;18.614;2023-04-15T13:35:17;4.05;;;2.65;;
73585;SDS011;61865;50.232;18.614;2023-04-15T13:37:39;4.68;;;3.20;;
73585;SDS011;61865;50.232;18.614;2023-04-15T13:40:03;4.90;;;3.10;;
73585;SDS011;61865;50.232;18.614;2023-04-15T13:42:27;5.38;;;2.90;;
73585;SDS011;61865;50.232;18.614;2023-04-15T13:44:49;6.28;;;3.38;;
73585;SDS011;61865;50.232;18.614;2023-04-15T13:47:11;5.28;;;2.97;;
73585;SDS011;61865;50.232;18.614;2023-04-15T13:49:35;5.05;;;2.83;;
73585;SDS011;61865;50.232;18.614;2023-04-15T13:51:57;4.43;;;2.70;;
73585;SDS011;61865;50.232;18.614;2023-04-15T13:54:18;4.88;;;2.90;;
73585;SDS011;61865;50.232;18.614;2023-04-15T13:56:42;4.05;;;2.40;;
73585;SDS011;61865;50.232;18.614;2023-04-15T13:59:04;6.47;;;3.10;;
73585;SDS011;61865;50.232;18.614;2023-04-15T14:01:27;4.50;;;2.70;;